Avalon, Texas
Current Conditions -  °F | °C
As of 3:55 PM on Thursday 23 Oct 2014 (Local Time) from KJWY Reporting Station
Clear Clear  
Wind Chill: 78°   Ceiling: Unl
Heat Index: 79°   Visibility: 10mi
Dew Point: 57°   Wind: 5mph
Humidity: 48%   Direction: 190°S
Pressure: 30.09"   Gusts: NA
Location:  32.21°N, 96.79°W
Report Text: KJWY 232055Z AUTO 19004KT 10SM CLR 26/14 A3009 RMK AO2 T02570140
Loading
Personal Weather Stations






























Interactive Weather Map New forecast layout! Learn more

10-Day Weather Forecast

Advertisements
Track Severe Weather on mobile